Ainsworth, Iowa
Current Conditions -  °F | °C
As of 4:35 PM on Friday 31 Oct 2014 (Local Time) from KAWG Reporting Station
Clear Clear  
Wind Chill:   Ceiling: Unl
Heat Index:   Visibility: 10mi
Dew Point: -7°   Wind: 17mph
Humidity: 39%   Direction: 350°N
Pressure: 30.4"   Gusts: 25mph
Location:  41.29°N, 91.55°W
Report Text: KAWG 312135Z AUTO 35015G22KT 10SM CLR 06/M07 A3040 RMK AO2
Loading
Personal Weather Stations






























Interactive Weather Map
Tropical Storm Tracking
New forecast layout! Learn more

10-Day Weather Forecast

Advertisements
Track Severe Weather on mobile